Klagetoh, Arizona
Current Conditions -  °F | °C
As of 1:53 PM on Monday 22 Dec 2014 (Local Time) from KRQE Reporting Station
Few Clouds Few Clouds  
Wind Chill: 51°   Ceiling: Unl
Heat Index: 51°   Visibility: 10mi
Dew Point: 32°   Wind: 22mph
Humidity: 48%   Direction: 290°WNW
Pressure: 29.88"   Gusts: 30mph
Location:  35.6053°N, 109.458°W
Report Text: KRQE 222053Z AUTO 29019G26KT 10SM FEW045 11/00 A2988 RMK AO2 PK WND 30026/2052 SLP064 T01060000 56029 TSNO
Loading
Personal Weather Stations






























Interactive Weather Map New forecast layout! Learn more

10-Day Weather Forecast

Advertisements
Track Severe Weather on mobile